createdAt,value
2023-03-24T00:05:18.786Z,10.47
2023-03-24T00:07:54.531Z,8.60
2023-03-24T00:10:25.322Z,10.97
2023-03-24T00:12:54.481Z,10.47
2023-03-24T00:15:24.152Z,9.40
2023-03-24T00:18:11.158Z,11.97
2023-03-24T00:20:42.809Z,8.17
2023-03-24T00:23:16.942Z,8.70
2023-03-24T00:25:46.002Z,7.77
2023-03-24T00:28:14.928Z,9.97
2023-03-24T00:30:43.993Z,10.07
2023-03-24T00:33:13.826Z,9.27
2023-03-24T00:35:45.930Z,8.37
2023-03-24T00:38:14.942Z,8.73
2023-03-24T00:40:48.990Z,9.37
2023-03-24T00:43:18.071Z,10.47
2023-03-24T00:45:48.436Z,7.60
2023-03-24T00:48:20.100Z,9.13
2023-03-24T00:50:53.326Z,9.07
2023-03-24T00:53:23.644Z,14.60
2023-03-24T00:55:53.070Z,9.33
2023-03-24T00:58:23.139Z,10.87
2023-03-24T01:00:55.951Z,9.63
2023-03-24T01:03:28.381Z,9.17
2023-03-24T01:06:09.061Z,10.07
2023-03-24T01:08:38.763Z,10.20
2023-03-24T01:11:09.234Z,8.37
2023-03-24T01:13:38.206Z,7.30
2023-03-24T01:16:12.893Z,8.50
2023-03-24T01:18:42.984Z,11.60
2023-03-24T01:21:35.449Z,9.27
2023-03-24T01:24:06.524Z,10.40
2023-03-24T01:26:41.303Z,6.90
2023-03-24T01:29:10.826Z,8.80
2023-03-24T01:31:42.016Z,7.20
2023-03-24T01:34:11.281Z,8.47
2023-03-24T01:36:51.043Z,13.57
2023-03-24T01:39:19.761Z,10.87
2023-03-24T01:41:48.897Z,9.30
2023-03-24T01:44:35.368Z,8.07
2023-03-24T01:47:08.280Z,7.73
2023-03-24T01:49:41.654Z,11.63
2023-03-24T01:52:19.310Z,9.63
2023-03-24T01:54:51.395Z,8.60
2023-03-24T01:57:28.244Z,9.23
2023-03-24T02:00:01.916Z,6.90
2023-03-24T02:02:35.072Z,8.57
2023-03-24T02:05:07.732Z,9.30
2023-03-24T02:07:46.793Z,8.73
2023-03-24T02:10:19.726Z,9.50
2023-03-24T02:12:50.995Z,7.97
2023-03-24T02:15:21.198Z,8.20
2023-03-24T02:18:02.245Z,9.23
2023-03-24T02:21:39.348Z,8.70
2023-03-24T02:25:10.165Z,8.83
2023-03-24T02:28:04.834Z,8.90
2023-03-24T02:31:03.563Z,7.60
2023-03-24T02:34:19.968Z,10.23
2023-03-24T02:37:52.527Z,8.13
2023-03-24T02:40:37.470Z,6.90
2023-03-24T02:43:22.736Z,9.43
2023-03-24T02:46:06.222Z,8.53
2023-03-24T02:48:47.037Z,7.00
2023-03-24T02:51:26.110Z,7.10
2023-03-24T02:54:07.379Z,6.40
2023-03-24T02:56:41.412Z,7.33
2023-03-24T02:59:20.225Z,8.33
2023-03-24T03:01:57.802Z,7.60
2023-03-24T03:04:34.177Z,8.73
2023-03-24T03:07:09.979Z,7.43
2023-03-24T03:09:43.220Z,7.60
2023-03-24T03:12:15.513Z,8.87
2023-03-24T03:14:53.713Z,8.43
2023-03-24T03:17:31.174Z,7.57
2023-03-24T03:20:05.355Z,9.90
2023-03-24T03:22:43.236Z,8.93
2023-03-24T03:25:15.740Z,8.40
2023-03-24T03:27:47.586Z,9.20
2023-03-24T03:30:23.522Z,7.83
2023-03-24T03:33:01.151Z,8.37
2023-03-24T03:35:36.588Z,6.93
2023-03-24T03:38:17.629Z,6.87
2023-03-24T03:40:54.759Z,5.17
2023-03-24T03:43:30.900Z,6.77
2023-03-24T03:46:01.569Z,7.17
2023-03-24T03:48:32.009Z,7.23
2023-03-24T03:51:13.077Z,7.20
2023-03-24T03:53:50.682Z,7.10
2023-03-24T03:56:22.048Z,6.90
2023-03-24T03:58:53.732Z,10.90
2023-03-24T04:01:28.459Z,5.53
2023-03-24T04:04:33.344Z,3.97
2023-03-24T04:07:17.464Z,5.33
2023-03-24T04:10:03.192Z,4.40
2023-03-24T04:13:09.953Z,8.30
2023-03-24T04:15:58.636Z,6.63
2023-03-24T04:19:35.208Z,5.37
2023-03-24T04:26:34.645Z,6.07
2023-03-24T04:30:27.423Z,6.47
2023-03-24T04:34:19.708Z,6.67
2023-03-24T04:37:03.308Z,4.37
2023-03-24T04:40:55.653Z,10.00
2023-03-24T04:48:12.202Z,7.80
2023-03-24T04:52:16.221Z,5.70
2023-03-24T04:57:57.629Z,7.00
2023-03-24T05:00:31.415Z,8.03
2023-03-24T05:03:00.293Z,6.13
2023-03-24T05:05:29.754Z,8.80
2023-03-24T05:08:00.347Z,5.53
2023-03-24T05:10:29.421Z,9.70
2023-03-24T05:12:58.320Z,7.80
2023-03-24T05:15:27.889Z,5.33
2023-03-24T05:17:57.084Z,9.43
2023-03-24T05:20:26.534Z,7.93
2023-03-24T05:22:56.045Z,8.67
2023-03-24T05:25:26.667Z,7.57
2023-03-24T05:27:55.710Z,6.43
2023-03-24T05:30:24.994Z,11.93
2023-03-24T05:32:53.828Z,5.67
2023-03-24T05:35:22.651Z,8.20
2023-03-24T05:37:51.284Z,9.50
2023-03-24T05:40:20.762Z,11.97
2023-03-24T05:42:52.187Z,11.50
2023-03-24T05:45:21.281Z,8.37
2023-03-24T05:47:51.481Z,10.97
2023-03-24T05:50:21.767Z,10.37
2023-03-24T05:52:50.967Z,11.57
2023-03-24T05:55:22.523Z,9.30
2023-03-24T05:57:52.424Z,11.30
2023-03-24T06:00:23.785Z,11.43
2023-03-24T06:02:52.686Z,12.80
2023-03-24T06:05:22.495Z,14.30
2023-03-24T06:07:51.580Z,10.63
2023-03-24T06:10:20.499Z,8.30
2023-03-24T06:12:49.514Z,10.37
2023-03-24T06:15:20.146Z,13.50
2023-03-24T06:17:50.371Z,10.77
2023-03-24T06:20:19.654Z,8.13
2023-03-24T06:22:50.742Z,17.03
2023-03-24T06:25:21.986Z,13.37
2023-03-24T06:27:52.156Z,13.47
2023-03-24T06:30:23.896Z,11.63
2023-03-24T06:32:52.824Z,9.30
2023-03-24T06:35:21.448Z,13.20
2023-03-24T06:37:50.323Z,12.90
2023-03-24T06:40:19.776Z,13.97
2023-03-24T06:42:49.776Z,12.27
2023-03-24T06:45:18.466Z,6.50
2023-03-24T06:47:48.973Z,10.17
2023-03-24T06:50:20.340Z,7.13
2023-03-24T06:52:48.924Z,6.03
2023-03-24T06:55:17.798Z,9.03
2023-03-24T06:57:49.480Z,10.50
2023-03-24T07:00:19.940Z,7.33
2023-03-24T07:02:50.188Z,10.83
2023-03-24T07:05:19.444Z,10.20
2023-03-24T07:10:21.958Z,9.60
2023-03-24T07:12:50.651Z,11.70
2023-03-24T07:15:19.350Z,10.33
2023-03-24T07:17:49.483Z,8.03
2023-03-24T07:20:18.470Z,11.63
2023-03-24T07:22:47.278Z,10.83
2023-03-24T07:25:20.149Z,11.37
2023-03-24T07:27:49.029Z,8.37
2023-03-24T07:30:20.565Z,10.83
2023-03-24T07:32:58.422Z,9.60
2023-03-24T07:35:28.156Z,12.37
2023-03-24T07:38:00.152Z,13.60
2023-03-24T07:40:30.450Z,12.57
2023-03-24T07:43:04.136Z,9.90
2023-03-24T07:45:33.066Z,7.93
2023-03-24T07:48:03.703Z,12.67
2023-03-24T07:50:33.320Z,9.13
2023-03-24T07:53:01.929Z,10.07
2023-03-24T07:55:30.835Z,14.13
2023-03-24T07:57:59.469Z,7.93
2023-03-24T08:00:29.624Z,9.87
2023-03-24T08:02:58.268Z,9.60
2023-03-24T08:05:31.181Z,11.30
2023-03-24T08:08:00.279Z,15.53
2023-03-24T08:10:30.782Z,17.03
2023-03-24T08:13:00.499Z,12.60
2023-03-24T08:15:30.327Z,14.20
2023-03-24T08:17:58.935Z,17.53
2023-03-24T08:20:29.788Z,13.10
2023-03-24T08:22:58.345Z,12.10
2023-03-24T08:25:29.004Z,13.00
2023-03-24T08:27:58.828Z,10.93
2023-03-24T08:30:29.462Z,14.73
2023-03-24T08:33:01.334Z,12.97
2023-03-24T08:35:35.276Z,15.20
2023-03-24T08:38:06.854Z,14.43
2023-03-24T08:40:37.492Z,14.13
2023-03-24T08:43:09.398Z,18.83
2023-03-24T08:45:39.835Z,13.47
2023-03-24T08:48:09.666Z,13.73
2023-03-24T08:50:42.310Z,15.03
2023-03-24T08:53:12.566Z,12.97
2023-03-24T08:55:43.963Z,12.10
2023-03-24T08:58:16.632Z,11.83
2023-03-24T09:00:46.588Z,18.50
2023-03-24T09:03:18.708Z,14.97
2023-03-24T09:05:49.785Z,11.73
2023-03-24T09:08:20.518Z,12.67
2023-03-24T09:10:49.926Z,14.07
2023-03-24T09:13:20.693Z,10.57
2023-03-24T09:15:51.904Z,14.53
2023-03-24T09:18:23.325Z,12.30
2023-03-24T09:20:53.616Z,10.63
2023-03-24T09:23:23.270Z,13.57
2023-03-24T09:25:52.398Z,8.10
2023-03-24T09:28:21.716Z,11.13
2023-03-24T09:30:50.507Z,15.03
2023-03-24T09:33:19.436Z,13.50
2023-03-24T09:35:59.729Z,13.87
2023-03-24T09:38:30.433Z,11.50
2023-03-24T09:41:03.154Z,11.40
2023-03-24T09:43:39.691Z,8.80
2023-03-24T09:46:14.936Z,13.13
2023-03-24T09:48:50.392Z,13.10
2023-03-24T09:51:26.454Z,10.90
2023-03-24T09:54:03.185Z,11.00
2023-03-24T09:56:34.152Z,12.20
2023-03-24T09:59:09.620Z,12.23
2023-03-24T10:01:38.612Z,15.00
2023-03-24T10:04:16.779Z,11.90
2023-03-24T10:06:49.196Z,13.00
2023-03-24T10:09:28.151Z,13.73
2023-03-24T10:12:12.708Z,10.63
2023-03-24T10:15:00.226Z,12.33
2023-03-24T10:17:42.916Z,5.73
2023-03-24T10:20:28.702Z,13.67
2023-03-24T10:23:15.650Z,9.83
2023-03-24T10:25:53.285Z,9.20
2023-03-24T10:28:26.338Z,11.70
2023-03-24T10:30:58.488Z,11.67
2023-03-24T10:33:30.912Z,10.67
2023-03-24T10:36:07.992Z,11.97
2023-03-24T10:38:38.362Z,10.23
2023-03-24T10:41:07.956Z,11.27
2023-03-24T10:43:36.871Z,14.67
2023-03-24T10:46:07.010Z,10.67
2023-03-24T10:48:46.006Z,9.73
2023-03-24T10:51:18.617Z,11.53
2023-03-24T10:53:50.734Z,17.13
2023-03-24T10:56:41.039Z,14.07
2023-03-24T10:59:26.699Z,12.47
2023-03-24T11:02:03.231Z,14.90
2023-03-24T11:04:34.025Z,11.43
2023-03-24T11:07:07.161Z,11.70
2023-03-24T11:09:44.911Z,13.43
2023-03-24T11:12:30.671Z,11.90
2023-03-24T11:15:22.081Z,8.27
2023-03-24T11:17:57.636Z,8.90
2023-03-24T11:20:33.700Z,12.70
2023-03-24T11:23:07.924Z,8.37
2023-03-24T11:25:41.544Z,9.03
2023-03-24T11:28:16.573Z,11.47
2023-03-24T11:30:50.839Z,10.47
2023-03-24T11:33:35.088Z,10.27
2023-03-24T11:36:27.847Z,8.10
2023-03-24T11:39:01.871Z,7.33
2023-03-24T11:41:32.304Z,8.43
2023-03-24T11:44:19.048Z,6.13
2023-03-24T11:46:53.098Z,5.97
2023-03-24T11:49:31.903Z,8.47
2023-03-24T11:52:01.972Z,11.07
2023-03-24T11:54:37.213Z,6.53
2023-03-24T11:57:14.047Z,9.37
2023-03-24T11:59:52.040Z,8.07
2023-03-24T12:02:40.865Z,6.00
2023-03-24T12:05:30.752Z,11.13
2023-03-24T12:08:26.715Z,8.50
2023-03-24T12:11:08.941Z,8.60
2023-03-24T12:13:43.287Z,7.90
2023-03-24T12:16:33.332Z,7.43
2023-03-24T12:19:43.792Z,9.23
2023-03-24T12:22:25.724Z,7.23
2023-03-24T12:25:30.655Z,7.60
2023-03-24T12:28:20.046Z,8.47
2023-03-24T12:31:11.413Z,9.17
2023-03-24T12:33:55.436Z,11.27
2023-03-24T12:36:48.029Z,10.97
2023-03-24T12:39:22.279Z,10.77
2023-03-24T12:42:13.202Z,8.87
2023-03-24T12:45:09.011Z,6.93
2023-03-24T12:48:21.007Z,6.10
2023-03-24T12:51:09.958Z,6.43
2023-03-24T12:53:53.721Z,7.40
2023-03-24T12:56:31.697Z,7.57
2023-03-24T12:59:06.329Z,9.87
2023-03-24T13:01:39.150Z,8.07
2023-03-24T13:04:16.921Z,10.03
2023-03-24T13:06:53.438Z,9.17
2023-03-24T13:09:37.360Z,6.83
2023-03-24T13:12:15.144Z,10.67
2023-03-24T13:14:54.911Z,5.60
2023-03-24T13:17:29.592Z,4.93
2023-03-24T13:20:01.702Z,4.67
2023-03-24T13:22:32.704Z,7.07
2023-03-24T13:25:03.152Z,7.20
2023-03-24T13:27:38.193Z,7.37
2023-03-24T13:30:31.641Z,8.60
2023-03-24T13:33:06.436Z,6.67
2023-03-24T13:41:28.843Z,7.83
2023-03-24T13:44:04.286Z,5.67
2023-03-24T13:46:33.380Z,5.90
2023-03-24T13:49:04.944Z,7.20
2023-03-24T13:51:38.739Z,6.70
2023-03-24T13:54:16.374Z,7.37
2023-03-24T13:56:57.162Z,4.57
2023-03-24T13:59:33.013Z,8.20
2023-03-24T14:02:23.571Z,7.97
2023-03-24T14:05:08.144Z,8.27
2023-03-24T14:07:47.799Z,10.63
2023-03-24T14:10:46.885Z,7.03
2023-03-24T14:13:48.283Z,8.07
2023-03-24T14:16:46.313Z,7.60
2023-03-24T14:19:29.065Z,7.37
2023-03-24T14:22:14.295Z,6.50
2023-03-24T14:24:47.169Z,7.07
2023-03-24T14:27:38.653Z,11.17
2023-03-24T14:30:22.400Z,10.77
2023-03-24T14:32:56.998Z,6.70
2023-03-24T14:35:38.047Z,7.23
2023-03-24T14:38:24.288Z,7.47
2023-03-24T14:41:02.487Z,9.82
2023-03-24T14:43:58.957Z,8.70
2023-03-24T14:46:47.882Z,6.72
2023-03-24T14:49:31.317Z,7.63
2023-03-24T14:52:05.272Z,5.28
2023-03-24T14:54:42.696Z,6.38
2023-03-24T14:57:21.615Z,7.30
2023-03-24T15:00:01.354Z,7.18
2023-03-24T15:02:42.242Z,4.20
2023-03-24T15:05:28.865Z,5.53
2023-03-24T15:08:13.546Z,5.15
2023-03-24T15:10:50.581Z,5.07
2023-03-24T15:13:37.889Z,9.70
2023-03-24T15:16:20.397Z,6.70
2023-03-24T15:19:01.366Z,4.68
2023-03-24T15:21:36.457Z,7.97
2023-03-24T15:24:30.023Z,6.22
2023-03-24T15:27:21.641Z,5.93
2023-03-24T15:29:59.493Z,6.17
2023-03-24T15:32:33.020Z,4.20
2023-03-24T15:35:12.905Z,4.32
2023-03-24T15:37:49.062Z,5.93
2023-03-24T15:40:41.619Z,6.07
2023-03-24T15:43:21.846Z,4.88
2023-03-24T15:46:01.429Z,5.40
2023-03-24T15:48:38.277Z,7.20
2023-03-24T15:51:13.681Z,5.78
2023-03-24T15:53:49.602Z,7.90
2023-03-24T15:56:27.174Z,4.83
2023-03-24T15:59:00.255Z,7.57
2023-03-24T16:01:36.637Z,5.93
2023-03-24T16:04:12.886Z,11.50
2023-03-24T16:06:52.903Z,5.23
2023-03-24T16:09:28.072Z,4.90
2023-03-24T16:11:58.744Z,5.60
2023-03-24T16:14:34.170Z,8.00
2023-03-24T16:17:04.839Z,7.97
2023-03-24T16:19:34.389Z,9.20
2023-03-24T16:22:09.962Z,9.70
2023-03-24T16:24:40.475Z,11.53
2023-03-24T16:27:10.983Z,5.60
2023-03-24T16:29:43.464Z,8.63
2023-03-24T16:32:12.821Z,8.53
2023-03-24T16:34:42.287Z,8.20
2023-03-24T16:37:12.762Z,6.73
2023-03-24T16:39:41.781Z,7.30
2023-03-24T16:42:11.203Z,8.37
2023-03-24T16:44:41.614Z,6.93
2023-03-24T16:47:13.036Z,6.67
2023-03-24T16:49:42.327Z,7.90
2023-03-24T16:52:16.459Z,6.93
2023-03-24T16:54:46.725Z,6.87
2023-03-24T16:57:16.735Z,6.53
2023-03-24T16:59:46.408Z,7.70
2023-03-24T17:02:17.671Z,5.30
2023-03-24T17:04:48.308Z,4.70
2023-03-24T17:07:18.915Z,4.77
2023-03-24T17:09:50.668Z,4.90
2023-03-24T17:12:22.618Z,4.47
2023-03-24T17:14:51.378Z,5.03
2023-03-24T17:17:25.572Z,9.07
2023-03-24T17:19:55.376Z,4.80
2023-03-24T17:22:27.209Z,4.13
2023-03-24T17:25:01.000Z,4.80
2023-03-24T17:27:45.839Z,3.30
2023-03-24T17:30:23.066Z,7.13
2023-03-24T17:32:57.434Z,5.43
2023-03-24T17:35:31.696Z,7.50
2023-03-24T17:38:10.560Z,5.33
2023-03-24T17:40:43.494Z,4.73
2023-03-24T17:43:15.435Z,4.60
2023-03-24T17:45:45.372Z,9.77
2023-03-24T17:48:20.386Z,6.23
2023-03-24T17:50:50.353Z,7.70
2023-03-24T17:53:26.776Z,7.90
2023-03-24T17:56:05.077Z,6.83
2023-03-24T17:58:37.750Z,3.83
2023-03-24T18:01:15.336Z,5.83
2023-03-24T18:03:44.421Z,5.60
2023-03-24T18:06:17.323Z,5.57
2023-03-24T18:08:47.892Z,6.53
2023-03-24T18:11:17.963Z,7.63
2023-03-24T18:13:47.247Z,4.77
2023-03-24T18:16:22.034Z,6.03
2023-03-24T18:18:52.790Z,8.27
2023-03-24T18:21:22.955Z,5.97
2023-03-24T18:23:56.461Z,6.07
2023-03-24T18:26:26.979Z,5.57
2023-03-24T18:28:57.011Z,6.83
2023-03-24T18:31:28.851Z,5.33
2023-03-24T18:33:58.343Z,7.07
2023-03-24T18:36:29.508Z,6.17
2023-03-24T18:39:02.056Z,9.63
2023-03-24T18:41:37.517Z,5.40
2023-03-24T18:44:09.331Z,9.60
2023-03-24T18:46:38.377Z,4.07
2023-03-24T18:49:08.696Z,5.43
2023-03-24T18:51:41.087Z,7.90
2023-03-24T18:54:13.436Z,6.50
2023-03-24T18:56:43.006Z,5.93
2023-03-24T18:59:12.740Z,8.00
2023-03-24T19:01:41.892Z,5.70
2023-03-24T19:04:11.315Z,6.03
2023-03-24T19:06:43.837Z,5.87
2023-03-24T19:09:20.262Z,7.77
2023-03-24T19:11:49.175Z,9.27
2023-03-24T19:14:18.696Z,8.47
2023-03-24T19:16:50.950Z,8.43
2023-03-24T19:19:20.586Z,10.10
2023-03-24T19:22:03.860Z,6.73
2023-03-24T19:24:35.282Z,5.00
2023-03-24T19:27:05.325Z,7.03
2023-03-24T19:29:34.845Z,4.50
2023-03-24T19:32:05.261Z,8.93
2023-03-24T19:34:33.844Z,5.63
2023-03-24T19:37:03.958Z,8.83
2023-03-24T19:39:34.831Z,6.63
2023-03-24T19:42:09.178Z,9.60
2023-03-24T19:44:38.498Z,7.17
2023-03-24T19:47:11.316Z,7.80
2023-03-24T19:49:40.833Z,7.23
2023-03-24T19:52:28.737Z,6.90
2023-03-24T19:55:00.363Z,6.50
2023-03-24T19:57:30.866Z,8.27
2023-03-24T20:00:00.663Z,9.73
2023-03-24T20:02:29.853Z,7.37
2023-03-24T20:05:00.162Z,8.47
2023-03-24T20:07:30.400Z,7.10
2023-03-24T20:10:01.360Z,5.60
2023-03-24T20:12:30.900Z,6.97
2023-03-24T20:15:00.946Z,5.87
2023-03-24T20:17:36.490Z,6.20
2023-03-24T20:20:08.083Z,7.17
2023-03-24T20:22:38.251Z,6.47
2023-03-24T20:25:12.143Z,6.47
2023-03-24T20:27:41.695Z,10.87
2023-03-24T20:30:13.530Z,8.70
2023-03-24T20:32:42.675Z,12.07
2023-03-24T20:35:13.779Z,6.93
2023-03-24T20:37:42.945Z,6.53
2023-03-24T20:40:14.380Z,7.70
2023-03-24T20:42:43.878Z,8.73
2023-03-24T20:45:17.904Z,6.90
2023-03-24T20:47:47.570Z,9.40
2023-03-24T20:50:18.527Z,9.20
2023-03-24T20:52:47.737Z,10.07
2023-03-24T20:55:19.471Z,11.33
2023-03-24T20:57:48.761Z,12.63
2023-03-24T21:00:20.606Z,9.03
2023-03-24T21:02:49.962Z,6.63
2023-03-24T21:05:19.230Z,7.17
2023-03-24T21:07:48.508Z,5.17
2023-03-24T21:10:28.547Z,8.50
2023-03-24T21:12:58.219Z,9.67
2023-03-24T21:15:30.733Z,8.93
2023-03-24T21:18:00.990Z,9.77
2023-03-24T21:20:31.762Z,9.30
2023-03-24T21:23:04.500Z,8.53
2023-03-24T21:25:51.285Z,7.77
2023-03-24T21:28:28.456Z,6.60
2023-03-24T21:30:58.628Z,8.83
2023-03-24T21:33:29.316Z,12.27
2023-03-24T21:36:01.504Z,8.47
2023-03-24T21:38:30.906Z,9.47
2023-03-24T21:41:02.378Z,8.57
2023-03-24T21:43:32.337Z,9.30
2023-03-24T21:46:05.077Z,11.77
2023-03-24T21:48:35.240Z,7.10
2023-03-24T21:51:05.582Z,7.43
2023-03-24T21:53:35.258Z,5.83
2023-03-24T21:56:11.061Z,9.70
2023-03-24T21:58:42.253Z,7.07
2023-03-24T22:01:21.975Z,6.07
2023-03-24T22:03:54.533Z,8.57
2023-03-24T22:06:30.243Z,6.47
2023-03-24T22:09:06.823Z,8.43
2023-03-24T22:11:43.013Z,6.37
2023-03-24T22:14:13.189Z,12.17
2023-03-24T22:16:43.187Z,7.83
2023-03-24T22:19:17.886Z,6.87
2023-03-24T22:21:50.550Z,7.07
2023-03-24T22:24:25.960Z,8.93
2023-03-24T22:26:59.199Z,8.83
2023-03-24T22:29:30.205Z,5.60
2023-03-24T22:32:00.354Z,10.10
2023-03-24T22:34:31.001Z,6.80
2023-03-24T22:37:01.041Z,8.00
2023-03-24T22:39:33.452Z,6.77
2023-03-24T22:42:04.090Z,10.53
2023-03-24T22:44:34.139Z,9.00
2023-03-24T22:47:05.247Z,9.60
2023-03-24T22:49:34.545Z,4.53
2023-03-24T22:52:05.128Z,8.37
2023-03-24T22:54:34.645Z,9.53
2023-03-24T22:57:05.433Z,8.07
2023-03-24T22:59:44.613Z,11.37
2023-03-24T23:02:15.920Z,6.50
2023-03-24T23:04:51.673Z,9.53
2023-03-24T23:07:24.294Z,8.47
2023-03-24T23:09:53.483Z,6.50
2023-03-24T23:12:25.774Z,7.07
2023-03-24T23:14:56.849Z,7.57
2023-03-24T23:17:26.860Z,7.47
2023-03-24T23:19:56.682Z,6.77
2023-03-24T23:22:27.050Z,7.43
2023-03-24T23:25:02.688Z,6.50
2023-03-24T23:27:37.881Z,10.60
2023-03-24T23:30:11.583Z,5.63
2023-03-24T23:32:44.290Z,7.47
2023-03-24T23:35:16.082Z,5.70
2023-03-24T23:37:45.372Z,6.33
2023-03-24T23:40:16.895Z,5.50
2023-03-24T23:42:50.738Z,6.80
2023-03-24T23:45:22.594Z,6.87
2023-03-24T23:47:52.901Z,7.00
2023-03-24T23:50:38.471Z,9.10
2023-03-24T23:53:12.893Z,6.43
2023-03-24T23:55:53.200Z,7.93
2023-03-24T23:58:33.587Z,7.90
